Time;durP1;ratioP1;P1;durP2;ratioP2;P2;SDS_P1;SDS_P2;PMS_P1;PMS_P2;Temp;Humidity;BMP_temperature;BMP_pressure;BME280_temperature;BME280_humidity;BME280_pressure;Samples;Min_cycle;Max_cycle;Signal;HPM_P1;HPM_P2
2022/01/13 00:00:19;;;;;;;26.67;17.90;;;6.80;99.50;;;;;;5055565;28;20409;-68
2022/01/13 00:02:46;;;;;;;33.20;18.73;;;6.90;99.50;;;;;;5037487;28;20179;-69
2022/01/13 00:05:12;;;;;;;26.63;17.47;;;6.60;99.30;;;;;;5056168;28;20429;-68
2022/01/13 00:07:37;;;;;;;31.87;17.37;;;6.60;99.30;;;;;;5055248;28;20968;-68
2022/01/13 00:10:04;;;;;;;28.50;16.93;;;6.70;99.10;;;;;;5054855;28;20422;-68
2022/01/13 00:12:33;;;;;;;28.47;17.00;;;6.70;99.60;;;;;;5055796;28;20184;-68
2022/01/13 00:18:01;;;;;;;31.77;16.83;;;6.60;99.60;;;;;;4966246;28;20426;-68
2022/01/13 00:20:35;;;;;;;32.70;17.87;;;6.60;99.80;;;;;;5055718;28;20416;-67
2022/01/13 00:25:46;;;;;;;30.73;17.30;;;6.70;99.60;;;;;;5040252;28;20500;-76
2022/01/13 00:28:20;;;;;;;27.45;15.20;;;6.70;99.60;;;;;;5055065;28;20903;-67
2022/01/13 00:30:51;;;;;;;24.67;16.33;;;6.90;99.40;;;;;;5055210;28;20187;-75
2022/01/13 00:33:23;;;;;;;32.20;15.97;;;6.70;99.00;;;;;;5037707;28;20163;-67
2022/01/13 00:35:49;;;;;;;28.47;16.83;;;6.40;98.80;;;;;;5036884;28;20414;-68
2022/01/13 00:38:15;;;;;;;31.73;16.33;;;6.70;99.00;;;;;;5055242;28;20413;-68
2022/01/13 00:40:40;;;;;;;30.07;17.27;;;6.30;98.90;;;;;;5055005;28;20981;-68
2022/01/13 00:43:06;;;;;;;27.43;15.90;;;6.70;99.10;;;;;;5054281;28;20234;-68
2022/01/13 00:45:32;;;;;;;28.23;16.73;;;6.60;99.20;;;;;;5055568;28;20189;-68
2022/01/13 00:47:57;;;;;;;24.60;16.60;;;6.60;99.20;;;;;;5053777;28;20287;-68
2022/01/13 00:50:23;;;;;;;28.30;17.23;;;6.60;99.00;;;;;;5055231;28;20654;-68
2022/01/13 00:52:49;;;;;;;29.03;17.07;;;6.60;99.10;;;;;;5036403;28;20203;-76
2022/01/13 00:55:20;;;;;;;27.13;17.87;;;6.60;99.30;;;;;;5054849;28;20178;-68
2022/01/13 00:57:46;;;;;;;29.07;16.00;;;6.60;99.30;;;;;;5054237;28;20479;-75
2022/01/13 01:00:12;;;;;;;24.27;15.30;;;6.60;99.10;;;;;;5036722;28;20533;-67
2022/01/13 01:02:38;;;;;;;30.50;18.17;;;6.60;98.90;;;;;;5036208;28;20402;-67
2022/01/13 01:05:04;;;;;;;30.17;16.37;;;6.60;98.70;;;;;;5036067;28;20914;-67
2022/01/13 01:07:30;;;;;;;29.57;17.20;;;6.40;98.50;;;;;;5053437;28;20219;-68
2022/01/13 01:09:58;;;;;;;31.57;18.50;;;6.50;98.60;;;;;;5053724;28;20426;-67
2022/01/13 01:12:24;;;;;;;26.10;17.30;;;6.50;98.80;;;;;;5054398;28;20178;-68
2022/01/13 01:14:55;;;;;;;30.27;17.30;;;6.50;99.10;;;;;;5054479;28;20398;-75
2022/01/13 01:17:21;;;;;;;27.80;17.80;;;6.50;99.20;;;;;;5043072;28;20869;-68
2022/01/13 01:19:50;;;;;;;31.97;17.87;;;6.10;99.10;;;;;;5034756;28;20423;-76
2022/01/13 01:27:17;;;;;;;31.07;17.03;;;6.20;99.80;;;;;;5033486;28;20909;-67
2022/01/13 01:29:51;;;;;;;32.17;17.20;;;6.40;99.50;;;;;;5034440;28;20831;-68
2022/01/13 01:32:17;;;;;;;32.93;17.10;;;6.50;99.70;;;;;;5034512;28;20413;-68
2022/01/13 01:37:14;;;;;;;26.85;16.80;;;6.50;99.90;;;;;;5041614;28;20457;-68
2022/01/13 01:39:40;;;;;;;36.70;17.97;;;6.50;99.90;;;;;;5054162;28;20198;-68
2022/01/13 01:42:06;;;;;;;29.73;17.07;;;6.50;99.90;;;;;;5053163;28;20421;-67
2022/01/13 01:44:36;;;;;;;30.23;19.10;;;6.50;99.80;;;;;;5053806;28;20524;-68
2022/01/13 01:47:03;;;;;;;31.57;17.97;;;6.50;99.90;;;;;;5053317;28;20731;-68
2022/01/13 01:49:32;;;;;;;32.90;18.10;;;6.50;99.90;;;;;;5053334;28;20489;-67
2022/01/13 01:52:01;;;;;;;31.90;18.37;;;6.50;99.90;;;;;;5035371;28;20770;-68
2022/01/13 01:54:27;;;;;;;41.53;18.70;;;6.50;99.90;;;;;;5054028;28;20414;-68
2022/01/13 01:56:53;;;;;;;28.00;16.60;;;6.50;99.90;;;;;;5052074;28;20753;-70
2022/01/13 01:59:23;;;;;;;29.53;17.57;;;6.60;99.90;;;;;;5019422;28;20405;-68
2022/01/13 02:01:50;;;;;;;34.67;17.27;;;6.60;99.90;;;;;;5036109;28;20582;-68
2022/01/13 02:04:18;;;;;;;33.93;19.27;;;6.60;99.90;;;;;;5053305;28;20388;-67
2022/01/13 02:06:45;;;;;;;30.23;17.90;;;6.60;99.90;;;;;;5035819;28;20404;-67
2022/01/13 02:09:12;;;;;;;37.87;20.40;;;6.60;99.90;;;;;;5052874;28;20544;-67
2022/01/13 02:11:47;;;;;;;34.70;19.07;;;6.60;99.90;;;;;;5035779;28;20402;-67
2022/01/13 02:17:11;;;;;;;28.00;17.63;;;6.60;99.90;;;;;;5051548;28;20439;-71
2022/01/13 02:19:40;;;;;;;32.63;19.17;;;6.50;99.90;;;;;;5053075;28;20794;-68
2022/01/13 02:22:07;;;;;;;32.63;18.30;;;6.50;99.90;;;;;;5052316;28;20413;-67
2022/01/13 02:24:34;;;;;;;28.40;16.70;;;6.50;99.90;;;;;;5053135;28;20742;-68
2022/01/13 02:27:00;;;;;;;35.20;18.17;;;6.50;99.90;;;;;;5052443;28;20498;-68
2022/01/13 02:29:26;;;;;;;33.67;18.53;;;6.50;99.90;;;;;;5035109;28;20567;-67
2022/01/13 02:31:52;;;;;;;30.33;18.97;;;6.50;99.90;;;;;;5052590;28;20429;-76
2022/01/13 02:34:18;;;;;;;32.30;17.50;;;6.50;99.90;;;;;;5052653;28;20474;-68
2022/01/13 02:36:46;;;;;;;27.17;17.07;;;6.50;99.90;;;;;;5035129;28;20253;-68
2022/01/13 02:39:12;;;;;;;35.57;16.17;;;6.50;99.80;;;;;;5052135;28;20874;-68
2022/01/13 02:41:38;;;;;;;29.97;18.63;;;6.40;99.70;;;;;;5053168;28;20445;-67
2022/01/13 02:44:13;;;;;;;30.87;17.27;;;6.50;99.80;;;;;;5052166;28;20562;-68
2022/01/13 02:49:10;;;;;;;30.73;17.47;;;6.40;99.70;;;;;;5051927;28;20457;-68
2022/01/13 02:51:38;;;;;;;28.23;16.30;;;6.30;99.70;;;;;;5052557;28;20163;-67
2022/01/13 02:54:05;;;;;;;26.37;16.53;;;6.30;99.50;;;;;;5052004;28;20454;-68
2022/01/13 02:56:31;;;;;;;31.13;18.13;;;6.10;99.30;;;;;;5034801;28;20417;-67
2022/01/13 02:58:57;;;;;;;30.40;18.00;;;6.20;99.60;;;;;;5051657;28;20993;-71
2022/01/13 03:01:26;;;;;;;25.42;17.42;;;5.80;99.70;;;;;;5034782;28;20174;-67
2022/01/13 03:03:52;;;;;;;30.02;17.60;;;6.20;99.90;;;;;;5053103;28;20178;-68
2022/01/13 03:06:33;;;;;;;30.23;17.87;;;6.20;99.90;;;;;;5051531;28;20182;-67
2022/01/13 03:08:59;;;;;;;34.20;18.35;;;6.20;99.90;;;;;;5052008;28;20280;-68
2022/01/13 03:11:32;;;;;;;27.77;16.17;;;6.50;99.90;;;;;;5034564;28;20178;-67
2022/01/13 03:13:58;;;;;;;27.88;18.10;;;5.90;99.90;;;;;;5051640;28;20468;-68
2022/01/13 03:16:24;;;;;;;31.63;18.20;;;6.20;99.90;;;;;;5052579;28;20206;-67
2022/01/13 03:18:53;;;;;;;31.90;18.70;;;6.10;99.90;;;;;;5051767;28;20473;-68
2022/01/13 03:21:19;;;;;;;33.13;18.90;;;6.20;99.90;;;;;;5051873;28;20451;-67
2022/01/13 03:23:44;;;;;;;29.90;17.47;;;6.20;99.90;;;;;;5052079;28;20445;-67
2022/01/13 03:26:11;;;;;;;33.63;18.90;;;6.10;99.90;;;;;;5051530;28;20198;-68
2022/01/13 03:28:50;;;;;;;32.10;18.47;;;6.10;99.90;;;;;;5034377;28;20269;-67
2022/01/13 03:31:23;;;;;;;34.13;18.38;;;6.10;99.90;;;;;;5051251;28;21098;-68
2022/01/13 03:33:53;;;;;;;35.27;19.50;;;6.20;99.90;;;;;;5051707;28;20158;-67
2022/01/13 03:36:19;;;;;;;34.90;20.40;;;6.00;99.90;;;;;;5017027;28;20391;-68
2022/01/13 03:38:45;;;;;;;33.95;19.98;;;6.10;99.90;;;;;;5052032;28;20610;-68
2022/01/13 03:41:12;;;;;;;39.07;21.90;;;6.10;99.90;;;;;;5033486;28;20201;-68
2022/01/13 03:43:37;;;;;;;38.90;22.00;;;6.20;99.90;;;;;;5034844;28;20462;-67
2022/01/13 03:46:07;;;;;;;39.17;21.77;;;6.20;99.90;;;;;;5071098;28;20508;-68
2022/01/13 03:48:33;;;;;;;35.60;19.93;;;6.20;99.90;;;;;;5072034;28;20197;-68
2022/01/13 03:50:59;;;;;;;38.67;19.67;;;6.20;99.90;;;;;;5070093;28;20412;-75
2022/01/13 03:53:28;;;;;;;35.83;19.55;;;6.10;99.90;;;;;;5070617;28;20185;-67
2022/01/13 03:56:15;;;;;;;36.35;19.20;;;6.00;99.90;;;;;;5070884;28;20178;-67
2022/01/13 03:59:30;;;;;;;40.00;20.10;;;6.30;99.90;;;;;;5072477;28;20184;-67
2022/01/13 04:02:12;;;;;;;31.33;19.20;;;6.30;99.90;;;;;;5071012;28;20166;-68
2022/01/13 04:04:48;;;;;;;37.07;21.20;;;6.40;99.90;;;;;;5071981;28;20531;-67
2022/01/13 04:07:22;;;;;;;39.90;21.73;;;6.30;99.90;;;;;;5069992;28;20497;-67
2022/01/13 04:09:47;;;;;;;37.30;20.07;;;6.40;99.90;;;;;;5070706;28;20441;-67
2022/01/13 04:12:15;;;;;;;35.60;19.97;;;5.90;99.90;;;;;;5070939;28;20416;-68
2022/01/13 04:17:12;;;;;;;39.47;22.07;;;6.40;99.90;;;;;;5051053;28;20842;-67
2022/01/13 04:19:38;;;;;;;35.80;20.37;;;6.40;99.90;;;;;;5052182;28;20443;-67
2022/01/13 04:22:05;;;;;;;36.83;20.07;;;6.50;99.90;;;;;;5051047;28;20441;-68
2022/01/13 04:24:31;;;;;;;33.47;18.63;;;6.40;99.90;;;;;;5051339;28;20406;-68
2022/01/13 04:26:57;;;;;;;41.77;20.37;;;6.40;99.90;;;;;;5051793;28;20395;-68
2022/01/13 04:31:55;;;;;;;34.33;20.97;;;6.50;99.90;;;;;;5051835;28;20406;-68
2022/01/13 04:34:21;;;;;;;36.63;20.43;;;6.50;99.90;;;;;;5051571;28;20423;-68
2022/01/13 04:36:48;;;;;;;36.63;19.27;;;6.50;99.90;;;;;;5050174;28;20448;-68
2022/01/13 04:39:15;;;;;;;37.90;20.40;;;6.50;99.90;;;;;;5050407;28;20581;-68
2022/01/13 04:41:44;;;;;;;35.80;20.50;;;6.40;99.90;;;;;;5052965;28;20419;-69
2022/01/13 04:44:14;;;;;;;35.37;20.57;;;6.50;99.90;;;;;;5039858;28;20449;-68
2022/01/13 04:46:43;;;;;;;37.73;19.27;;;6.50;99.90;;;;;;5035388;28;20428;-68
2022/01/13 04:49:10;;;;;;;36.83;19.30;;;6.20;99.90;;;;;;5034594;28;20498;-68
2022/01/13 04:51:38;;;;;;;38.33;20.80;;;6.40;99.90;;;;;;5035253;28;20423;-68
2022/01/13 04:54:05;;;;;;;38.07;20.53;;;6.60;99.90;;;;;;5034370;28;20506;-69
2022/01/13 04:57:05;;;;;;;36.90;21.60;;;6.60;99.90;;;;;;5035294;28;20393;-68
2022/01/13 04:59:17;;;;;;;38.27;18.73;;;6.60;99.90;;;;;;5049993;28;20410;-68
2022/01/13 05:01:43;;;;;;;37.37;19.23;;;6.60;99.90;;;;;;5055179;28;20467;-67
2022/01/13 05:04:09;;;;;;;37.73;19.57;;;6.70;99.90;;;;;;5054442;28;20417;-68
2022/01/13 05:06:36;;;;;;;31.73;18.23;;;6.50;99.90;;;;;;5055122;28;20422;-67
2022/01/13 05:09:03;;;;;;;41.97;19.43;;;6.50;99.90;;;;;;5055031;28;20289;-75
2022/01/13 05:11:29;;;;;;;33.60;20.07;;;6.50;99.90;;;;;;5055685;28;20927;-67
2022/01/13 05:13:55;;;;;;;33.60;19.33;;;6.40;99.90;;;;;;5037551;28;20429;-67
2022/01/13 05:16:25;;;;;;;31.80;19.60;;;6.50;99.90;;;;;;5055080;28;20332;-67
2022/01/13 05:18:56;;;;;;;32.20;17.57;;;6.50;99.90;;;;;;5038170;28;20179;-67
2022/01/13 05:21:38;;;;;;;33.10;19.10;;;6.50;99.90;;;;;;5054752;28;20648;-67
2022/01/13 05:24:04;;;;;;;32.70;20.00;;;6.10;99.90;;;;;;5036905;28;20487;-76
2022/01/13 05:26:29;;;;;;;37.73;20.73;;;6.50;99.90;;;;;;5055092;28;20422;-67
2022/01/13 05:28:55;;;;;;;32.67;18.00;;;6.50;99.90;;;;;;5054788;28;20464;-67
2022/01/13 05:31:21;;;;;;;32.63;18.50;;;6.50;99.90;;;;;;5053964;28;20183;-67
2022/01/13 05:33:47;;;;;;;33.27;19.67;;;6.50;99.90;;;;;;5054335;28;20468;-67
2022/01/13 05:36:13;;;;;;;38.23;20.23;;;6.50;99.90;;;;;;5053596;28;20181;-67
2022/01/13 05:38:42;;;;;;;37.70;21.60;;;6.60;99.90;;;;;;5054809;28;20521;-67
2022/01/13 05:41:09;;;;;;;36.77;19.13;;;6.70;99.90;;;;;;5053184;28;20463;-68
2022/01/13 05:43:35;;;;;;;28.90;19.10;;;6.60;99.90;;;;;;5053695;28;20476;-67
2022/01/13 05:46:01;;;;;;;34.13;17.53;;;6.60;99.90;;;;;;5054366;28;20816;-67
2022/01/13 05:48:26;;;;;;;34.10;19.80;;;6.60;99.90;;;;;;5052892;28;20448;-67
2022/01/13 05:50:52;;;;;;;36.57;19.97;;;6.60;99.90;;;;;;5053207;28;20454;-67
2022/01/13 05:53:18;;;;;;;32.97;19.33;;;6.60;99.90;;;;;;5052592;28;20194;-68
2022/01/13 05:55:44;;;;;;;35.97;19.23;;;6.60;99.90;;;;;;5053661;28;20535;-67
2022/01/13 05:58:10;;;;;;;35.20;19.80;;;6.50;99.90;;;;;;5053052;28;20564;-68
2022/01/13 06:00:36;;;;;;;36.00;19.60;;;6.20;99.90;;;;;;5053609;28;20207;-67
2022/01/13 06:03:02;;;;;;;30.77;17.53;;;6.50;99.90;;;;;;5053264;28;20183;-67
2022/01/13 06:05:28;;;;;;;33.50;18.30;;;6.50;99.90;;;;;;5022069;28;20433;-67
2022/01/13 06:07:54;;;;;;;32.73;19.83;;;6.50;99.90;;;;;;5033729;28;20511;-67
2022/01/13 06:10:20;;;;;;;34.77;18.63;;;6.50;99.90;;;;;;5015247;28;20748;-67
2022/01/13 06:12:47;;;;;;;35.33;20.43;;;6.20;99.90;;;;;;5034100;28;20187;-67
2022/01/13 06:15:15;;;;;;;32.13;18.60;;;6.20;99.90;;;;;;5040919;28;20453;-68
2022/01/13 06:17:42;;;;;;;34.47;19.53;;;6.40;99.90;;;;;;5035609;28;20424;-68
2022/01/13 06:20:10;;;;;;;36.33;19.40;;;6.40;99.90;;;;;;5035387;28;20448;-68
2022/01/13 06:22:38;;;;;;;36.80;19.00;;;6.30;99.90;;;;;;5053558;28;20751;-68
2022/01/13 06:25:05;;;;;;;36.40;18.37;;;6.50;99.90;;;;;;5052824;28;20422;-70
2022/01/13 06:27:32;;;;;;;35.20;19.67;;;6.50;99.90;;;;;;5017529;28;20406;-69
2022/01/13 06:29:58;;;;;;;33.80;19.37;;;6.00;99.90;;;;;;5015595;28;20215;-72
2022/01/13 06:32:24;;;;;;;34.70;20.03;;;6.30;99.90;;;;;;5032492;28;20406;-71
2022/01/13 06:34:51;;;;;;;34.57;20.43;;;6.40;99.90;;;;;;5015276;28;20457;-70
2022/01/13 06:37:18;;;;;;;36.47;20.70;;;6.50;99.90;;;;;;5014983;28;20466;-70
2022/01/13 06:39:44;;;;;;;32.60;21.53;;;6.60;99.90;;;;;;4999074;28;20452;-72
2022/01/13 06:42:10;;;;;;;32.43;19.10;;;6.40;99.90;;;;;;5041348;28;20980;-73
2022/01/13 06:44:36;;;;;;;29.60;18.13;;;6.40;99.90;;;;;;5048747;28;20470;-70
2022/01/13 06:47:03;;;;;;;32.33;18.63;;;7.00;99.90;;;;;;5056703;28;20751;-72
2022/01/13 06:49:30;;;;;;;31.77;19.10;;;7.10;99.90;;;;;;5054772;28;20517;-72
2022/01/13 06:51:57;;;;;;;30.53;18.10;;;7.80;99.90;;;;;;5071484;28;20488;-72
2022/01/13 06:54:23;;;;;;;34.77;17.60;;;8.60;99.90;;;;;;5072501;28;20418;-73
2022/01/13 06:56:50;;;;;;;30.20;18.87;;;9.20;99.90;;;;;;5073125;28;20457;-72
2022/01/13 06:59:16;;;;;;;27.70;17.70;;;9.80;99.90;;;;;;5065168;28;20515;-73
2022/01/13 07:01:42;;;;;;;27.57;17.33;;;10.20;99.90;;;;;;5071227;28;20424;-73
2022/01/13 07:04:12;;;;;;;31.07;19.17;;;10.60;99.90;;;;;;5066287;28;20479;-74
2022/01/13 07:06:39;;;;;;;27.93;17.67;;;11.00;98.90;;;;;;5073063;28;20168;-72
2022/01/13 07:09:08;;;;;;;25.90;17.27;;;11.20;97.60;;;;;;5072934;28;20455;-73
2022/01/13 07:11:35;;;;;;;25.43;16.67;;;11.50;96.80;;;;;;5072494;28;20910;-72
2022/01/13 07:14:01;;;;;;;26.37;17.73;;;12.00;99.90;;;;;;5072708;28;20429;-72
2022/01/13 07:16:27;;;;;;;24.23;17.33;;;12.70;99.90;;;;;;5072209;28;20419;-71
2022/01/13 07:18:53;;;;;;;25.03;16.80;;;13.10;97.90;;;;;;5065423;28;20427;-72
2022/01/13 07:21:21;;;;;;;25.80;15.70;;;13.60;97.90;;;;;;5071887;28;20416;-73
2022/01/13 07:23:47;;;;;;;26.33;18.87;;;14.00;95.90;;;;;;5072954;28;20414;-70
2022/01/13 07:26:13;;;;;;;27.80;20.47;;;14.20;92.50;;;;;;5061245;28;20433;-73
2022/01/13 07:28:38;;;;;;;27.27;20.02;;;13.80;84.40;;;;;;5070031;28;20869;-71
2022/01/13 07:31:05;;;;;;;23.13;17.50;;;13.30;79.30;;;;;;5070708;28;20194;-71
2022/01/13 07:33:31;;;;;;;26.37;19.00;;;12.70;77.80;;;;;;5071195;28;20685;-72
2022/01/13 07:35:57;;;;;;;26.30;18.37;;;12.10;77.90;;;;;;5070894;28;20443;-71
2022/01/13 07:38:22;;;;;;;26.20;18.23;;;11.40;79.10;;;;;;5070937;28;20431;-70
2022/01/13 07:40:48;;;;;;;29.50;18.60;;;10.80;81.10;;;;;;5071584;28;20537;-70
2022/01/13 07:43:21;;;;;;;25.20;18.30;;;9.90;87.40;;;;;;5063984;28;20359;-70
2022/01/13 07:45:47;;;;;;;31.37;17.60;;;9.30;90.50;;;;;;5042467;28;20425;-70
2022/01/13 07:48:13;;;;;;;24.80;17.73;;;8.90;91.70;;;;;;5035537;28;21019;-81
2022/01/13 07:50:39;;;;;;;26.60;16.40;;;8.60;92.70;;;;;;5046918;28;20541;-73
2022/01/13 07:53:04;;;;;;;27.13;15.40;;;8.30;93.60;;;;;;5020707;28;20185;-69
2022/01/13 07:55:30;;;;;;;25.87;17.07;;;8.00;94.20;;;;;;5047157;28;20177;-70
2022/01/13 07:57:56;;;;;;;22.57;14.67;;;7.80;94.90;;;;;;5015728;28;20188;-70
2022/01/13 08:00:21;;;;;;;28.30;15.80;;;7.70;95.50;;;;;;5013914;28;20649;-70
2022/01/13 08:02:47;;;;;;;28.30;16.20;;;7.40;96.10;;;;;;5003012;28;20226;-70
2022/01/13 08:05:13;;;;;;;31.20;17.63;;;7.20;96.50;;;;;;5036646;28;20176;-70
2022/01/13 08:07:39;;;;;;;26.10;16.63;;;7.10;97.20;;;;;;5037643;28;20185;-70
2022/01/13 08:10:05;;;;;;;25.80;18.17;;;6.90;97.70;;;;;;5031514;28;20181;-73
2022/01/13 08:12:31;;;;;;;30.57;16.73;;;6.80;98.30;;;;;;5037240;28;20433;-71
2022/01/13 08:14:56;;;;;;;28.90;18.20;;;6.70;98.80;;;;;;5043235;28;20793;-71
2022/01/13 08:20:08;;;;;;;25.45;16.65;;;6.50;99.40;;;;;;5054281;28;20195;-70
2022/01/13 08:22:35;;;;;;;29.00;16.88;;;6.40;99.60;;;;;;5049727;28;20266;-70
2022/01/13 08:25:01;;;;;;;29.08;16.63;;;6.40;99.90;;;;;;5053924;28;20631;-71
2022/01/13 08:27:26;;;;;;;30.90;16.60;;;6.40;99.90;;;;;;5051260;28;20236;-70
2022/01/13 08:29:52;;;;;;;28.50;15.87;;;6.40;99.90;;;;;;5051924;28;20166;-70
2022/01/13 08:32:19;;;;;;;28.40;16.40;;;6.30;99.90;;;;;;5049784;28;20616;-70
2022/01/13 08:34:45;;;;;;;23.10;15.30;;;6.30;99.90;;;;;;5027612;28;20426;-71
2022/01/13 08:37:11;;;;;;;32.17;16.80;;;6.20;99.90;;;;;;5054969;28;20441;-81
2022/01/13 08:39:43;;;;;;;30.93;17.40;;;6.20;99.90;;;;;;5036068;28;20461;-69
2022/01/13 08:42:10;;;;;;;36.47;21.23;;;6.30;99.90;;;;;;5035124;28;20654;-69
2022/01/13 08:44:35;;;;;;;31.27;19.50;;;6.30;99.90;;;;;;5034607;28;20461;-69
2022/01/13 08:47:01;;;;;;;32.27;18.60;;;6.30;99.90;;;;;;5074724;28;20443;-69
2022/01/13 08:49:28;;;;;;;28.65;18.00;;;6.40;99.90;;;;;;5074351;28;20284;-69
2022/01/13 08:51:55;;;;;;;28.50;17.23;;;6.50;99.90;;;;;;5074658;28;20658;-69
2022/01/13 08:54:22;;;;;;;31.20;19.10;;;6.70;99.90;;;;;;5073675;28;20203;-69
2022/01/13 08:56:48;;;;;;;26.83;16.80;;;6.60;99.90;;;;;;5074774;28;20869;-69
2022/01/13 08:59:14;;;;;;;29.90;16.40;;;6.60;99.90;;;;;;5074336;28;20414;-79
2022/01/13 09:01:40;;;;;;;28.67;16.00;;;6.70;99.90;;;;;;5074976;28;20423;-69
2022/01/13 09:04:06;;;;;;;23.20;14.83;;;6.80;99.90;;;;;;5075051;28;20478;-69
2022/01/13 09:06:32;;;;;;;28.40;16.73;;;6.90;99.90;;;;;;5071302;28;20442;-69
2022/01/13 09:08:58;;;;;;;24.90;15.07;;;7.20;99.90;;;;;;5061852;28;20225;-69
2022/01/13 09:11:24;;;;;;;25.07;16.20;;;7.90;99.90;;;;;;5054025;28;20178;-70
2022/01/13 09:13:56;;;;;;;25.43;15.50;;;8.70;98.60;;;;;;5069580;28;20478;-70
2022/01/13 09:16:24;;;;;;;24.63;16.57;;;9.60;96.40;;;;;;5051514;28;20422;-70
2022/01/13 09:21:23;;;;;;;23.23;17.17;;;12.10;91.30;;;;;;5073700;28;20398;-70
2022/01/13 09:23:50;;;;;;;22.23;15.67;;;13.40;86.50;;;;;;5072270;28;20425;-70
2022/01/13 09:26:16;;;;;;;22.73;16.40;;;14.50;80.70;;;;;;5053240;28;20456;-81
2022/01/13 09:28:42;;;;;;;22.80;16.67;;;15.40;76.00;;;;;;5045040;28;20471;-69
2022/01/13 09:31:08;;;;;;;24.17;17.67;;;16.10;71.60;;;;;;5068543;28;20469;-69
2022/01/13 09:33:35;;;;;;;22.60;16.57;;;16.60;69.00;;;;;;5058078;28;20661;-70
2022/01/13 09:36:01;;;;;;;21.70;15.80;;;17.10;66.40;;;;;;5058759;28;20454;-70
2022/01/13 09:38:27;;;;;;;22.00;17.90;;;17.60;63.50;;;;;;5064181;28;20423;-70
2022/01/13 09:40:54;;;;;;;22.03;18.07;;;18.00;61.60;;;;;;5071686;28;20423;-70
2022/01/13 09:43:25;;;;;;;17.53;15.10;;;18.30;59.80;;;;;;5045339;28;20352;-70
2022/01/13 09:45:52;;;;;;;19.53;16.73;;;18.40;59.20;;;;;;5034259;28;20928;-70
2022/01/13 09:48:18;;;;;;;21.07;16.80;;;18.40;58.60;;;;;;5033484;28;20468;-77
2022/01/13 09:50:48;;;;;;;18.00;15.90;;;18.30;58.00;;;;;;5033814;28;20417;-69
2022/01/13 09:53:15;;;;;;;20.00;17.07;;;18.30;58.40;;;;;;5034254;28;20409;-70
2022/01/13 09:55:42;;;;;;;21.43;16.77;;;18.40;58.10;;;;;;5027009;28;20435;-69
2022/01/13 09:58:10;;;;;;;19.60;15.40;;;18.40;57.80;;;;;;5035813;28;20825;-71
2022/01/13 10:00:41;;;;;;;21.47;15.20;;;18.20;57.70;;;;;;5033685;28;20424;-70
2022/01/13 10:03:16;;;;;;;20.90;15.93;;;18.00;58.60;;;;;;5050664;28;20455;-71
2022/01/13 10:05:54;;;;;;;21.30;17.40;;;17.80;58.70;;;;;;5053188;28;20425;-70
2022/01/13 10:08:39;;;;;;;21.20;16.23;;;17.50;59.20;;;;;;5052979;28;20470;-71
2022/01/13 10:11:26;;;;;;;22.13;16.70;;;17.40;59.40;;;;;;5035520;28;20416;-70
2022/01/13 10:17:05;;;;;;;23.70;16.80;;;17.30;60.10;;;;;;5023520;28;20465;-70
2022/01/13 10:19:43;;;;;;;22.83;17.13;;;17.00;60.80;;;;;;5035596;28;20837;-70
2022/01/13 10:22:20;;;;;;;23.03;18.00;;;17.00;60.50;;;;;;5053472;28;20428;-69
2022/01/13 10:24:54;;;;;;;18.73;15.70;;;16.90;61.60;;;;;;5053663;28;20423;-70
2022/01/13 10:27:29;;;;;;;21.53;16.33;;;16.80;62.60;;;;;;5052993;28;20400;-72
2022/01/13 10:30:07;;;;;;;23.43;16.90;;;16.70;61.30;;;;;;5046227;28;20452;-72
2022/01/13 10:32:38;;;;;;;13.27;11.63;;;16.50;65.90;;;;;;5040011;28;20475;-71
2022/01/13 10:35:11;;;;;;;16.67;13.53;;;17.50;89.20;;;;;;5033313;28;20487;-71
2022/01/13 10:37:42;;;;;;;18.80;15.10;;;18.20;75.40;;;;;;5032478;28;20433;-71
2022/01/13 10:40:25;;;;;;;18.33;16.23;;;18.80;66.70;;;;;;5036829;28;20420;-70
2022/01/13 10:45:32;;;;;;;19.10;16.20;;;19.60;60.90;;;;;;5050143;28;20435;-71
2022/01/13 10:48:03;;;;;;;17.57;15.50;;;19.80;58.90;;;;;;5034781;28;20460;-74
2022/01/13 10:50:34;;;;;;;16.30;14.70;;;20.00;58.70;;;;;;5049093;28;20813;-71
2022/01/13 10:53:06;;;;;;;17.47;15.03;;;20.00;58.10;;;;;;5033772;28;20416;-69
2022/01/13 10:55:36;;;;;;;19.23;14.97;;;20.10;57.90;;;;;;5033746;28;20883;-71
2022/01/13 10:58:02;;;;;;;18.30;14.60;;;20.20;57.50;;;;;;5052615;28;20923;-71
2022/01/13 11:00:31;;;;;;;17.00;15.30;;;20.30;57.50;;;;;;5051845;28;20416;-71
2022/01/13 11:03:15;;;;;;;15.20;13.60;;;20.30;56.70;;;;;;5034980;28;20438;-71
2022/01/13 11:05:46;;;;;;;18.13;15.07;;;20.30;56.70;;;;;;5051684;28;20395;-70
2022/01/13 11:08:18;;;;;;;17.87;14.77;;;20.30;57.00;;;;;;5052611;28;20467;-70
2022/01/13 11:10:49;;;;;;;17.10;13.63;;;20.20;56.90;;;;;;5048455;28;20409;-71
2022/01/13 11:13:19;;;;;;;14.27;12.10;;;20.20;57.00;;;;;;5032485;28;20417;-71
2022/01/13 11:15:50;;;;;;;19.60;16.90;;;20.10;56.80;;;;;;5034078;28;20433;-67
2022/01/13 11:18:20;;;;;;;20.80;15.87;;;20.10;55.90;;;;;;5051900;28;20487;-68
2022/01/13 11:20:47;;;;;;;17.80;15.37;;;19.70;56.00;;;;;;5051552;28;20491;-67
2022/01/13 11:23:16;;;;;;;19.17;15.60;;;19.20;56.30;;;;;;5045129;28;20436;-68
2022/01/13 11:25:44;;;;;;;19.73;14.83;;;18.60;57.60;;;;;;5019498;28;20935;-69
2022/01/13 11:28:10;;;;;;;23.43;16.53;;;18.20;58.00;;;;;;5047555;28;20497;-69
2022/01/13 11:30:37;;;;;;;20.93;15.37;;;17.80;59.00;;;;;;5050055;28;20493;-70
2022/01/13 11:33:03;;;;;;;22.77;18.00;;;17.40;60.10;;;;;;5036839;28;20431;-68
2022/01/13 11:35:34;;;;;;;19.43;14.60;;;17.20;61.10;;;;;;5039503;28;20420;-72
2022/01/13 11:38:03;;;;;;;21.67;16.17;;;16.90;61.70;;;;;;5021507;28;20421;-68
2022/01/13 11:40:29;;;;;;;23.40;16.67;;;16.60;63.50;;;;;;5031222;28;20444;-69
2022/01/13 11:42:56;;;;;;;20.40;15.33;;;16.30;63.80;;;;;;5026064;28;20470;-70
2022/01/13 11:45:23;;;;;;;24.67;17.47;;;16.20;64.90;;;;;;5056124;28;20188;-69
2022/01/13 11:47:51;;;;;;;23.87;16.03;;;16.10;65.20;;;;;;5052641;28;20473;-71
2022/01/13 11:50:24;;;;;;;21.23;15.63;;;15.90;65.30;;;;;;5062731;28;20433;-68
2022/01/13 11:52:53;;;;;;;20.60;16.03;;;15.90;66.00;;;;;;5074963;28;20426;-69
2022/01/13 11:55:27;;;;;;;20.20;14.83;;;15.90;65.70;;;;;;5075114;28;20915;-69
2022/01/13 11:58:16;;;;;;;18.93;15.00;;;15.90;65.50;;;;;;5076985;28;20428;-69
2022/01/13 12:00:44;;;;;;;19.77;13.93;;;15.70;66.30;;;;;;5077823;28;20459;-69
2022/01/13 12:03:31;;;;;;;24.03;16.60;;;15.60;66.60;;;;;;5078732;28;20416;-68
2022/01/13 12:05:58;;;;;;;19.73;15.13;;;15.60;66.70;;;;;;5078681;28;20854;-67
2022/01/13 12:08:47;;;;;;;21.73;15.13;;;15.50;67.70;;;;;;5075826;28;20471;-79
2022/01/13 12:11:38;;;;;;;19.53;14.77;;;15.50;68.00;;;;;;5059245;28;20559;-69
2022/01/13 12:14:41;;;;;;;21.27;14.73;;;15.30;68.60;;;;;;5060364;28;20505;-70
2022/01/13 12:17:30;;;;;;;22.00;16.50;;;15.20;68.60;;;;;;4996728;28;20493;-69
2022/01/13 12:20:02;;;;;;;19.73;14.80;;;14.90;69.40;;;;;;5075464;28;20452;-68
2022/01/13 12:22:43;;;;;;;18.10;14.43;;;14.80;69.70;;;;;;5076109;28;20451;-69
2022/01/13 12:25:12;;;;;;;20.77;14.27;;;14.60;70.40;;;;;;5077678;28;20429;-69
2022/01/13 12:27:40;;;;;;;18.90;15.00;;;14.50;70.90;;;;;;5077082;28;20769;-70
2022/01/13 12:30:39;;;;;;;19.10;13.43;;;14.40;71.00;;;;;;5077284;28;20503;-68
2022/01/13 12:33:07;;;;;;;22.60;12.70;;;14.30;71.70;;;;;;5029549;28;20797;-68
2022/01/13 12:35:42;;;;;;;20.33;14.37;;;14.30;72.00;;;;;;5077663;28;20407;-69
2022/01/13 12:38:18;;;;;;;17.77;12.93;;;14.20;72.50;;;;;;5078458;28;20422;-68
2022/01/13 12:41:02;;;;;;;19.30;13.53;;;14.10;72.60;;;;;;5075511;28;20545;-67
2022/01/13 12:46:11;;;;;;;22.20;12.90;;;14.00;72.90;;;;;;5078277;28;20477;-68
2022/01/13 12:48:39;;;;;;;18.83;13.70;;;14.00;73.20;;;;;;5077024;28;20458;-69
2022/01/13 12:51:05;;;;;;;17.73;13.70;;;14.00;73.70;;;;;;5078310;28;20415;-69
2022/01/13 12:53:36;;;;;;;19.83;12.87;;;14.00;74.40;;;;;;5076332;28;20777;-69
2022/01/13 12:56:13;;;;;;;18.40;12.70;;;13.90;73.70;;;;;;5076845;28;20425;-69
2022/01/13 12:58:44;;;;;;;20.93;13.40;;;13.80;73.70;;;;;;5077532;28;20503;-69
2022/01/13 13:01:31;;;;;;;18.20;13.27;;;13.80;74.80;;;;;;5078090;28;20429;-69
2022/01/13 13:04:11;;;;;;;20.20;13.20;;;13.70;75.60;;;;;;5072775;28;20928;-68
2022/01/13 13:06:45;;;;;;;20.57;13.30;;;13.70;75.00;;;;;;5052923;28;20426;-69
2022/01/13 13:09:30;;;;;;;21.40;13.47;;;13.60;75.50;;;;;;5065737;28;20455;-68
2022/01/13 13:12:00;;;;;;;21.23;12.77;;;13.50;76.10;;;;;;5071692;28;20430;-69
2022/01/13 13:17:31;;;;;;;18.33;12.70;;;13.40;76.50;;;;;;5071567;28;20964;-70
2022/01/13 13:19:56;;;;;;;20.50;14.30;;;13.40;77.60;;;;;;5073993;28;20835;-69
2022/01/13 13:22:22;;;;;;;20.53;13.07;;;13.40;77.00;;;;;;5074439;28;20424;-68